createdAt,value
2023-05-12T00:01:58.177Z,39.78
2023-05-12T00:04:25.264Z,40.45
2023-05-12T00:06:53.674Z,40.05
2023-05-12T00:09:20.601Z,40.78
2023-05-12T00:11:48.549Z,42.03
2023-05-12T00:14:16.131Z,39.50
2023-05-12T00:16:43.479Z,40.50
2023-05-12T00:19:10.656Z,40.13
2023-05-12T00:21:37.750Z,40.40
2023-05-12T00:24:05.445Z,41.03
2023-05-12T00:26:32.430Z,41.72
2023-05-12T00:28:59.763Z,41.72
2023-05-12T00:31:26.914Z,41.03
2023-05-12T00:33:53.917Z,42.30
2023-05-12T00:36:20.844Z,41.67
2023-05-12T00:38:48.992Z,42.45
2023-05-12T00:41:16.735Z,41.08
2023-05-12T00:43:45.482Z,41.60
2023-05-12T00:46:12.860Z,42.38
2023-05-12T00:48:40.638Z,40.78
2023-05-12T00:51:08.661Z,41.60
2023-05-12T00:53:48.365Z,43.65
2023-05-12T00:56:18.812Z,41.55
2023-05-12T00:58:46.776Z,42.00
2023-05-12T01:01:14.066Z,42.10
2023-05-12T01:03:41.430Z,40.75
2023-05-12T01:06:31.280Z,42.22
2023-05-12T01:08:59.222Z,41.92
2023-05-12T01:11:26.212Z,43.58
2023-05-12T01:13:53.196Z,42.50
2023-05-12T01:16:27.873Z,45.65
2023-05-12T01:18:56.449Z,45.33
2023-05-12T01:21:23.594Z,47.97
2023-05-12T01:23:58.352Z,53.13
2023-05-12T01:26:29.881Z,47.22
2023-05-12T01:28:57.441Z,45.47
2023-05-12T01:31:25.136Z,45.83
2023-05-12T01:33:52.167Z,72.38
2023-05-12T01:36:19.097Z,51.97
2023-05-12T01:38:46.139Z,105.07
2023-05-12T01:41:13.140Z,55.92
2023-05-12T01:43:40.193Z,77.90
2023-05-12T01:46:07.280Z,46.80
2023-05-12T01:48:34.313Z,55.03
2023-05-12T01:51:01.916Z,73.32
2023-05-12T01:53:28.929Z,51.50
2023-05-12T01:55:56.096Z,68.25
2023-05-12T01:58:22.990Z,59.42
2023-05-12T02:00:49.966Z,46.00
2023-05-12T02:03:17.018Z,48.05
2023-05-12T02:05:44.377Z,47.70
2023-05-12T02:08:11.402Z,56.47
2023-05-12T02:10:39.560Z,98.07
2023-05-12T02:13:06.528Z,80.85
2023-05-12T02:15:33.528Z,67.25
2023-05-12T02:18:00.571Z,49.08
2023-05-12T02:20:29.760Z,60.63
2023-05-12T02:22:57.498Z,151.07
2023-05-12T02:25:24.601Z,82.22
2023-05-12T02:27:51.965Z,111.95
2023-05-12T02:30:19.297Z,84.75
2023-05-12T02:32:46.549Z,105.15
2023-05-12T02:35:13.792Z,60.00
2023-05-12T02:37:40.707Z,51.25
2023-05-12T02:40:08.372Z,55.40
2023-05-12T02:42:36.405Z,46.45
2023-05-12T02:45:03.588Z,45.78
2023-05-12T02:47:33.441Z,50.65
2023-05-12T02:50:00.583Z,44.75
2023-05-12T02:52:27.969Z,43.88
2023-05-12T02:54:56.254Z,44.08
2023-05-12T02:57:24.375Z,50.10
2023-05-12T02:59:51.316Z,61.15
2023-05-12T03:02:18.306Z,58.80
2023-05-12T03:04:45.303Z,43.85
2023-05-12T03:07:12.257Z,41.42
2023-05-12T03:09:39.370Z,42.80
2023-05-12T03:12:07.240Z,40.67
2023-05-12T03:14:34.174Z,43.13
2023-05-12T03:17:01.206Z,40.90
2023-05-12T03:19:28.218Z,41.35
2023-05-12T03:21:55.997Z,41.05
2023-05-12T03:24:23.107Z,42.58
2023-05-12T03:26:51.221Z,41.75
2023-05-12T03:29:18.151Z,42.65
2023-05-12T03:31:45.609Z,41.38
2023-05-12T03:34:12.745Z,38.47
2023-05-12T03:36:41.460Z,39.92
2023-05-12T03:39:11.140Z,40.45
2023-05-12T03:41:39.004Z,41.50
2023-05-12T03:44:06.409Z,39.15
2023-05-12T03:46:33.543Z,39.05
2023-05-12T03:49:01.319Z,39.40
2023-05-12T03:51:28.397Z,38.72
2023-05-12T03:53:55.360Z,37.00
2023-05-12T03:56:23.029Z,39.42
2023-05-12T03:58:50.043Z,37.35
2023-05-12T04:01:17.672Z,38.83
2023-05-12T04:03:44.785Z,36.60
2023-05-12T04:06:12.324Z,36.53
2023-05-12T04:08:41.815Z,35.10
2023-05-12T04:11:10.552Z,39.92
2023-05-12T04:13:37.657Z,35.53
2023-05-12T04:16:05.713Z,38.03
2023-05-12T04:18:32.856Z,36.25
2023-05-12T04:21:01.470Z,37.10
2023-05-12T04:23:28.835Z,36.67
2023-05-12T04:25:56.552Z,35.58
2023-05-12T04:28:23.492Z,35.47
2023-05-12T04:30:50.591Z,34.03
2023-05-12T04:33:17.734Z,33.70
2023-05-12T04:35:46.839Z,34.70
2023-05-12T04:38:13.888Z,34.55
2023-05-12T04:40:41.132Z,32.97
2023-05-12T04:43:08.475Z,31.55
2023-05-12T04:45:35.491Z,32.53
2023-05-12T04:48:04.929Z,33.08
2023-05-12T04:50:31.966Z,32.08
2023-05-12T04:52:59.015Z,32.42
2023-05-12T04:55:26.052Z,31.58
2023-05-12T04:57:53.030Z,31.85
2023-05-12T05:00:20.236Z,30.52
2023-05-12T05:02:47.661Z,30.45
2023-05-12T05:05:15.028Z,30.85
2023-05-12T05:07:42.155Z,29.08
2023-05-12T05:10:09.531Z,29.73
2023-05-12T05:12:36.886Z,28.45
2023-05-12T05:15:04.853Z,28.58
2023-05-12T05:17:31.930Z,29.80
2023-05-12T05:19:59.929Z,28.23
2023-05-12T05:22:27.499Z,28.98
2023-05-12T05:24:54.785Z,27.83
2023-05-12T05:27:22.139Z,28.85
2023-05-12T05:29:49.623Z,30.48
2023-05-12T05:32:16.826Z,30.40
2023-05-12T05:34:43.829Z,31.42
2023-05-12T05:37:10.870Z,32.17
2023-05-12T05:39:38.402Z,32.05
2023-05-12T05:42:05.548Z,32.17
2023-05-12T05:44:32.583Z,32.42
2023-05-12T05:46:59.646Z,32.17
2023-05-12T05:49:26.715Z,31.55
2023-05-12T05:51:53.988Z,31.45
2023-05-12T05:54:23.603Z,31.23
2023-05-12T05:56:50.894Z,29.83
2023-05-12T05:59:17.943Z,29.30
2023-05-12T06:01:45.799Z,29.15
2023-05-12T06:04:14.126Z,28.23
2023-05-12T06:06:41.118Z,28.48
2023-05-12T06:09:10.702Z,27.17
2023-05-12T06:11:37.764Z,27.90
2023-05-12T06:14:04.792Z,28.30
2023-05-12T06:16:31.755Z,27.55
2023-05-12T06:18:58.803Z,27.85
2023-05-12T06:21:25.832Z,28.35
2023-05-12T06:23:52.889Z,29.17
2023-05-12T06:26:19.917Z,28.40
2023-05-12T06:28:46.868Z,28.77
2023-05-12T06:31:13.817Z,28.45
2023-05-12T06:33:40.857Z,27.23
2023-05-12T06:36:08.241Z,28.20
2023-05-12T06:38:35.573Z,28.25
2023-05-12T06:41:02.491Z,28.52
2023-05-12T06:43:29.752Z,30.48
2023-05-12T06:45:57.079Z,31.88
2023-05-12T06:48:24.411Z,29.42
2023-05-12T06:50:51.907Z,30.05
2023-05-12T06:53:18.907Z,33.35
2023-05-12T06:55:47.163Z,36.97
2023-05-12T06:58:14.412Z,36.88
2023-05-12T07:00:41.777Z,38.05
2023-05-12T07:03:11.258Z,37.67
2023-05-12T07:05:38.297Z,38.88
2023-05-12T07:08:06.026Z,37.83
2023-05-12T07:10:35.350Z,38.92
2023-05-12T07:13:02.377Z,37.65
2023-05-12T07:15:32.615Z,36.40
2023-05-12T07:18:00.116Z,37.55
2023-05-12T07:20:27.706Z,35.47
2023-05-12T07:22:55.242Z,35.97
2023-05-12T07:25:22.590Z,32.35
2023-05-12T07:27:51.008Z,28.30
2023-05-12T07:30:18.133Z,32.33
2023-05-12T07:32:45.289Z,30.90
2023-05-12T07:35:14.817Z,30.17
2023-05-12T07:37:41.734Z,32.15
2023-05-12T07:40:09.940Z,33.95
2023-05-12T07:42:37.023Z,34.03
2023-05-12T07:45:04.421Z,34.83
2023-05-12T07:47:31.416Z,37.67
2023-05-12T07:49:58.457Z,33.75
2023-05-12T07:52:25.494Z,35.03
2023-05-12T07:54:52.700Z,32.80
2023-05-12T07:57:20.196Z,31.13
2023-05-12T07:59:47.434Z,30.20
2023-05-12T08:02:14.497Z,31.77
2023-05-12T08:04:43.180Z,27.40
2023-05-12T08:07:11.385Z,24.88
2023-05-12T08:09:38.344Z,25.40
2023-05-12T08:12:05.714Z,26.35
2023-05-12T08:14:32.792Z,28.65
2023-05-12T08:16:59.852Z,28.08
2023-05-12T08:19:26.891Z,28.15
2023-05-12T08:21:53.960Z,27.45
2023-05-12T08:24:22.055Z,29.13
2023-05-12T08:26:49.225Z,34.38
2023-05-12T08:29:16.852Z,26.08
2023-05-12T08:31:43.972Z,25.38
2023-05-12T08:34:11.398Z,25.75
2023-05-12T08:36:39.835Z,24.27
2023-05-12T08:39:08.312Z,26.35
2023-05-12T08:42:10.859Z,26.40
2023-05-12T08:44:38.606Z,26.23
2023-05-12T08:47:07.087Z,26.02
2023-05-12T08:49:36.717Z,25.23
2023-05-12T08:52:04.369Z,25.02
2023-05-12T08:59:32.323Z,23.60
2023-05-12T09:01:59.483Z,23.88
2023-05-12T09:04:26.632Z,22.70
2023-05-12T09:06:55.777Z,22.83
2023-05-12T09:09:24.440Z,22.48
2023-05-12T09:11:56.512Z,22.92
2023-05-12T09:14:25.976Z,23.70
2023-05-12T09:16:59.694Z,24.10
2023-05-12T09:19:28.415Z,23.73
2023-05-12T09:21:56.165Z,24.38
2023-05-12T09:24:38.394Z,23.23
2023-05-12T09:27:06.146Z,23.67
2023-05-12T09:29:39.527Z,23.15
2023-05-12T09:32:12.598Z,23.58
2023-05-12T09:34:41.648Z,23.20
2023-05-12T09:37:09.014Z,23.85
2023-05-12T09:39:36.821Z,23.38
2023-05-12T09:42:04.250Z,22.77
2023-05-12T09:44:33.465Z,23.15
2023-05-12T09:47:08.144Z,23.35
2023-05-12T09:49:35.214Z,23.55
2023-05-12T09:52:05.322Z,23.95
2023-05-12T09:54:34.588Z,24.88
2023-05-12T09:57:04.114Z,24.40
2023-05-12T09:59:33.875Z,25.17
2023-05-12T10:02:03.125Z,25.65
2023-05-12T10:04:42.104Z,25.75
2023-05-12T10:07:13.228Z,26.13
2023-05-12T10:09:42.847Z,25.55
2023-05-12T10:12:10.630Z,25.05
2023-05-12T10:14:38.527Z,26.67
2023-05-12T10:17:07.287Z,26.08
2023-05-12T10:19:35.782Z,27.38
2023-05-12T10:22:04.530Z,27.85
2023-05-12T10:24:31.753Z,29.38
2023-05-12T10:26:59.957Z,29.35
2023-05-12T10:29:31.250Z,29.10
2023-05-12T10:32:01.472Z,32.60
2023-05-12T10:34:34.980Z,31.73
2023-05-12T10:37:08.847Z,30.00
2023-05-12T10:39:36.248Z,41.55
2023-05-12T10:42:09.795Z,35.75
2023-05-12T10:44:37.796Z,28.85
2023-05-12T10:47:16.338Z,28.90
2023-05-12T10:49:43.907Z,30.33
2023-05-12T10:52:19.758Z,33.53
2023-05-12T10:54:47.850Z,27.52
2023-05-12T10:57:21.490Z,28.13
2023-05-12T10:59:59.826Z,27.13
2023-05-12T11:02:34.713Z,28.30
2023-05-12T11:05:10.942Z,27.73
2023-05-12T11:07:39.626Z,26.63
2023-05-12T11:10:08.056Z,27.02
2023-05-12T11:12:36.388Z,26.48
2023-05-12T11:15:05.550Z,25.77
2023-05-12T11:17:33.146Z,27.58
2023-05-12T11:20:01.634Z,25.73
2023-05-12T11:22:28.995Z,26.00
2023-05-12T11:24:56.219Z,25.77
2023-05-12T11:27:24.253Z,26.25
2023-05-12T11:30:03.092Z,26.65
2023-05-12T11:32:30.583Z,28.20
2023-05-12T11:35:12.218Z,26.98
2023-05-12T11:37:41.056Z,27.75
2023-05-12T11:40:19.413Z,29.70
2023-05-12T11:42:53.169Z,28.83
2023-05-12T11:45:26.069Z,31.85
2023-05-12T11:47:54.285Z,32.38
2023-05-12T11:50:23.111Z,33.22
2023-05-12T11:52:51.262Z,33.78
2023-05-12T11:55:24.599Z,35.03
2023-05-12T11:58:00.334Z,36.17
2023-05-12T12:00:32.912Z,34.17
2023-05-12T12:03:11.631Z,35.55
2023-05-12T12:05:40.477Z,34.85
2023-05-12T12:08:14.277Z,34.88
2023-05-12T12:10:46.717Z,35.38
2023-05-12T12:13:19.970Z,35.05
2023-05-12T12:15:46.968Z,34.53
2023-05-12T12:18:13.980Z,32.55
2023-05-12T12:20:43.247Z,31.02
2023-05-12T12:23:10.281Z,30.55
2023-05-12T12:25:37.657Z,29.60
2023-05-12T12:28:05.252Z,29.58
2023-05-12T12:30:32.617Z,29.55
2023-05-12T12:32:59.745Z,29.42
2023-05-12T12:35:26.916Z,29.30
2023-05-12T12:37:53.970Z,28.92
2023-05-12T12:40:20.962Z,28.13
2023-05-12T12:42:48.060Z,29.33
2023-05-12T12:45:15.159Z,28.10
2023-05-12T12:47:42.690Z,28.45
2023-05-12T12:50:10.856Z,28.55
2023-05-12T12:52:39.034Z,27.25
2023-05-12T12:55:07.488Z,26.65
2023-05-12T12:57:35.012Z,27.02
2023-05-12T13:00:05.869Z,27.35
2023-05-12T13:02:34.684Z,28.90
2023-05-12T13:05:06.166Z,28.27
2023-05-12T13:07:33.623Z,29.75
2023-05-12T13:10:00.618Z,31.50
2023-05-12T13:12:29.420Z,29.52
2023-05-12T13:14:57.100Z,30.75
2023-05-12T13:17:25.195Z,34.90
2023-05-12T13:19:53.239Z,30.90
2023-05-12T13:22:20.643Z,30.83
2023-05-12T13:24:48.278Z,30.80
2023-05-12T13:27:15.436Z,30.90
2023-05-12T13:29:42.419Z,30.20
2023-05-12T13:32:09.515Z,29.88
2023-05-12T13:34:37.460Z,27.52
2023-05-12T13:37:04.539Z,25.77
2023-05-12T13:39:32.154Z,26.40
2023-05-12T13:41:59.957Z,26.50
2023-05-12T13:44:27.648Z,25.65
2023-05-12T13:46:54.748Z,24.45
2023-05-12T13:49:22.239Z,24.38
2023-05-12T13:51:49.268Z,24.02
2023-05-12T13:54:16.305Z,23.90
2023-05-12T13:56:43.514Z,24.08
2023-05-12T13:59:10.518Z,23.48
2023-05-12T14:01:37.698Z,23.73
2023-05-12T14:04:04.752Z,24.00
2023-05-12T14:06:32.768Z,24.42
2023-05-12T14:08:59.872Z,25.55
2023-05-12T14:11:27.433Z,24.95
2023-05-12T14:13:54.475Z,26.35
2023-05-12T14:16:21.524Z,27.40
2023-05-12T14:18:48.626Z,26.15
2023-05-12T14:21:16.794Z,25.75
2023-05-12T14:23:44.144Z,25.77
2023-05-12T14:26:11.303Z,26.50
2023-05-12T14:28:39.028Z,26.17
2023-05-12T14:31:06.230Z,25.67
2023-05-12T14:33:33.435Z,26.33
2023-05-12T14:36:07.319Z,25.58
2023-05-12T14:38:34.849Z,25.10
2023-05-12T14:41:02.226Z,25.20
2023-05-12T14:43:29.574Z,24.85
2023-05-12T14:45:56.666Z,25.02
2023-05-12T14:48:26.275Z,26.13
2023-05-12T14:50:54.036Z,25.70
2023-05-12T14:53:21.517Z,26.42
2023-05-12T14:55:52.207Z,24.48
2023-05-12T14:58:24.516Z,24.92
2023-05-12T15:00:52.025Z,24.50
2023-05-12T15:03:21.092Z,23.75
2023-05-12T15:06:04.875Z,23.98
2023-05-12T15:08:33.744Z,23.27
2023-05-12T15:11:00.764Z,23.67
2023-05-12T15:13:27.785Z,23.15
2023-05-12T15:15:56.614Z,23.08
2023-05-12T15:18:24.153Z,23.13
2023-05-12T15:20:51.669Z,22.55
2023-05-12T15:23:18.817Z,22.50
2023-05-12T15:25:45.859Z,23.35
2023-05-12T15:28:13.401Z,23.33
2023-05-12T15:30:40.681Z,23.25
2023-05-12T15:33:07.788Z,23.35
2023-05-12T15:35:34.927Z,23.20
2023-05-12T15:38:01.998Z,23.90
2023-05-12T15:40:31.029Z,24.40
2023-05-12T15:42:58.876Z,24.38
2023-05-12T15:45:27.614Z,25.10
2023-05-12T15:47:57.228Z,25.80
2023-05-12T15:50:24.747Z,25.65
2023-05-12T15:52:52.167Z,26.48
2023-05-12T15:55:19.639Z,26.77
2023-05-12T15:57:46.922Z,28.50
2023-05-12T16:00:14.798Z,27.92
2023-05-12T16:02:41.905Z,27.52
2023-05-12T16:05:10.197Z,27.30
2023-05-12T16:07:37.328Z,27.02
2023-05-12T16:10:04.973Z,26.35
2023-05-12T16:12:32.034Z,25.90
2023-05-12T16:14:59.684Z,24.52
2023-05-12T16:17:28.533Z,22.92
2023-05-12T16:19:57.062Z,22.58
2023-05-12T16:22:24.272Z,21.60
2023-05-12T16:24:51.378Z,22.23
2023-05-12T16:27:18.417Z,21.63
2023-05-12T16:29:46.028Z,21.90
2023-05-12T16:32:13.227Z,21.88
2023-05-12T16:34:40.664Z,22.25
2023-05-12T16:37:07.747Z,22.08
2023-05-12T16:39:36.055Z,22.38
2023-05-12T16:42:03.445Z,22.13
2023-05-12T16:44:30.621Z,21.65
2023-05-12T16:46:57.619Z,21.15
2023-05-12T16:49:25.082Z,21.38
2023-05-12T16:51:52.419Z,21.50
2023-05-12T16:54:19.406Z,21.30
2023-05-12T16:56:47.393Z,21.67
2023-05-12T16:59:14.983Z,21.20
2023-05-12T17:01:42.008Z,20.17
2023-05-12T17:04:11.928Z,19.23
2023-05-12T17:06:39.180Z,19.45
2023-05-12T17:09:06.196Z,19.67
2023-05-12T17:11:33.189Z,19.45
2023-05-12T17:14:01.700Z,19.83
2023-05-12T17:16:28.876Z,19.83
2023-05-12T17:21:28.319Z,20.27
2023-05-12T17:23:55.384Z,19.65
2023-05-12T17:26:22.662Z,20.00
2023-05-12T17:28:49.675Z,20.10
2023-05-12T17:31:16.669Z,19.85
2023-05-12T17:33:44.657Z,19.05
2023-05-12T17:36:13.373Z,18.92
2023-05-12T17:38:41.266Z,19.30
2023-05-12T17:41:09.482Z,19.00
2023-05-12T17:43:36.507Z,18.90
2023-05-12T17:46:04.930Z,18.90
2023-05-12T17:48:33.469Z,19.25
2023-05-12T17:51:01.496Z,19.58
2023-05-12T17:53:28.636Z,19.27
2023-05-12T17:55:55.621Z,19.85
2023-05-12T17:58:22.781Z,18.80
2023-05-12T18:00:51.558Z,19.58
2023-05-12T18:03:23.969Z,18.88
2023-05-12T18:05:54.355Z,19.10
2023-05-12T18:08:21.936Z,18.75
2023-05-12T18:10:49.480Z,19.70
2023-05-12T18:13:16.589Z,20.10
2023-05-12T18:15:43.954Z,19.73
2023-05-12T18:18:11.085Z,19.67
2023-05-12T18:20:38.570Z,19.38
2023-05-12T18:23:08.110Z,19.58
2023-05-12T18:25:36.452Z,19.45
2023-05-12T18:28:03.487Z,19.23
2023-05-12T18:30:30.558Z,19.33
2023-05-12T18:32:57.613Z,19.60
2023-05-12T18:35:28.129Z,19.73
2023-05-12T18:37:55.061Z,19.35
2023-05-12T18:40:22.097Z,19.55
2023-05-12T18:42:49.130Z,20.15
2023-05-12T18:45:16.919Z,19.42
2023-05-12T18:47:44.092Z,19.48
2023-05-12T18:50:11.653Z,19.83
2023-05-12T18:52:38.617Z,19.67
2023-05-12T18:55:06.107Z,20.38
2023-05-12T18:57:33.358Z,21.27
2023-05-12T19:00:01.169Z,20.95
2023-05-12T19:02:28.286Z,20.90
2023-05-12T19:04:56.052Z,21.08
2023-05-12T19:07:24.161Z,21.52
2023-05-12T19:09:51.283Z,21.02
2023-05-12T19:12:18.504Z,21.27
2023-05-12T19:14:45.599Z,21.55
2023-05-12T19:17:14.952Z,21.55
2023-05-12T19:19:42.050Z,22.58
2023-05-12T19:22:09.446Z,23.42
2023-05-12T19:24:38.080Z,23.98
2023-05-12T19:27:05.188Z,24.02
2023-05-12T19:29:33.229Z,24.35
2023-05-12T19:32:00.293Z,23.42
2023-05-12T19:34:29.670Z,23.90
2023-05-12T19:36:58.396Z,24.15
2023-05-12T19:39:25.388Z,24.70
2023-05-12T19:41:52.446Z,25.65
2023-05-12T19:44:20.098Z,23.88
2023-05-12T19:46:53.659Z,24.17
2023-05-12T19:49:20.765Z,23.77
2023-05-12T19:51:48.843Z,24.23
2023-05-12T19:54:16.484Z,24.20
2023-05-12T19:56:43.505Z,24.48
2023-05-12T19:59:10.580Z,24.65
2023-05-12T20:01:37.636Z,24.17
2023-05-12T20:04:04.808Z,25.25
2023-05-12T20:06:32.154Z,24.92
2023-05-12T20:08:59.152Z,24.95
2023-05-12T20:11:26.082Z,25.20
2023-05-12T20:13:53.159Z,25.27
2023-05-12T20:16:20.233Z,25.10
2023-05-12T20:18:47.274Z,25.23
2023-05-12T20:21:14.304Z,24.92
2023-05-12T20:23:41.797Z,24.98
2023-05-12T20:26:10.296Z,25.20
2023-05-12T20:28:37.369Z,24.85
2023-05-12T20:31:04.326Z,24.85
2023-05-12T20:33:32.447Z,25.20
2023-05-12T20:35:59.421Z,25.05
2023-05-12T20:38:26.899Z,25.48
2023-05-12T20:40:53.929Z,25.08
2023-05-12T20:43:21.501Z,25.92
2023-05-12T20:45:48.526Z,25.80
2023-05-12T20:48:15.590Z,25.30
2023-05-12T20:50:43.270Z,25.77
2023-05-12T20:53:10.252Z,25.77
2023-05-12T20:55:37.242Z,25.38
2023-05-12T20:58:04.304Z,27.00
2023-05-12T21:00:31.400Z,26.63
2023-05-12T21:02:59.184Z,26.58
2023-05-12T21:05:26.637Z,26.63
2023-05-12T21:07:53.775Z,27.58
2023-05-12T21:10:21.691Z,26.52
2023-05-12T21:12:49.074Z,26.52
2023-05-12T21:15:16.289Z,25.95
2023-05-12T21:17:43.720Z,25.80
2023-05-12T21:20:12.334Z,26.33
2023-05-12T21:22:40.860Z,25.85
2023-05-12T21:25:08.614Z,25.80
2023-05-12T21:27:40.928Z,25.90
2023-05-12T21:30:09.282Z,25.88
2023-05-12T21:32:36.833Z,25.40
2023-05-12T21:35:04.040Z,24.60
2023-05-12T21:37:31.105Z,24.60
2023-05-12T21:39:58.103Z,24.30
2023-05-12T21:42:25.141Z,26.42
2023-05-12T21:44:52.580Z,24.08
2023-05-12T21:47:19.656Z,24.85
2023-05-12T21:49:46.651Z,24.00
2023-05-12T21:52:13.817Z,23.67
2023-05-12T21:54:40.740Z,23.67
2023-05-12T21:57:10.206Z,22.85
2023-05-12T21:59:37.199Z,23.25
2023-05-12T22:02:04.817Z,23.05
2023-05-12T22:04:31.833Z,23.38
2023-05-12T22:06:59.036Z,23.10
2023-05-12T22:09:26.221Z,23.15
2023-05-12T22:11:53.498Z,23.35
2023-05-12T22:14:21.442Z,23.35
2023-05-12T22:16:48.504Z,22.98
2023-05-12T22:19:17.125Z,22.63
2023-05-12T22:21:44.670Z,22.75
2023-05-12T22:24:11.716Z,23.70
2023-05-12T22:26:39.075Z,23.20
2023-05-12T22:29:06.257Z,22.70
2023-05-12T22:31:33.301Z,22.67
2023-05-12T22:34:00.298Z,22.95
2023-05-12T22:36:27.286Z,22.65
2023-05-12T22:38:55.712Z,22.80
2023-05-12T22:41:22.711Z,22.67
2023-05-12T22:43:49.651Z,23.05
2023-05-12T22:46:16.705Z,23.02
2023-05-12T22:48:44.126Z,22.65
2023-05-12T22:51:11.200Z,22.73
2023-05-12T22:53:41.499Z,22.38
2023-05-12T22:56:08.765Z,22.48
2023-05-12T22:58:35.887Z,22.00
2023-05-12T23:01:02.974Z,22.38
2023-05-12T23:03:30.212Z,21.95
2023-05-12T23:05:57.409Z,22.20
2023-05-12T23:08:24.537Z,22.23
2023-05-12T23:10:51.471Z,22.02
2023-05-12T23:13:18.423Z,21.25
2023-05-12T23:15:45.356Z,21.42
2023-05-12T23:18:12.301Z,21.42
2023-05-12T23:20:39.251Z,21.60
2023-05-12T23:23:07.113Z,21.58
2023-05-12T23:25:35.262Z,21.70
2023-05-12T23:28:03.254Z,20.85
2023-05-12T23:30:32.190Z,21.45
2023-05-12T23:32:59.288Z,21.73
2023-05-12T23:35:28.841Z,21.67
2023-05-12T23:37:58.388Z,21.95
2023-05-12T23:40:26.414Z,21.13
2023-05-12T23:42:54.539Z,21.13
2023-05-12T23:45:22.615Z,21.02
2023-05-12T23:47:51.194Z,20.98
2023-05-12T23:50:18.646Z,21.83
2023-05-12T23:52:46.919Z,21.42
2023-05-12T23:55:13.885Z,21.77
2023-05-12T23:57:40.841Z,21.70
